createdAt,value
2019-01-27T00:01:02.804Z,96404.98
2019-01-27T00:03:29.427Z,96394.92
2019-01-27T00:05:56.138Z,96398.17
2019-01-27T00:08:22.871Z,96396.70
2019-01-27T00:10:49.493Z,96393.65
2019-01-27T00:13:17.177Z,96387.81
2019-01-27T00:15:44.104Z,96387.47
2019-01-27T00:18:12.314Z,96390.73
2019-01-27T00:20:39.146Z,96387.16
2019-01-27T00:23:06.101Z,96384.89
2019-01-27T00:25:33.041Z,96391.36
2019-01-27T00:27:59.945Z,96381.64
2019-01-27T00:30:26.606Z,96377.77
2019-01-27T00:32:53.255Z,96375.48
2019-01-27T00:35:20.542Z,96376.45
2019-01-27T00:37:47.303Z,96379.51
2019-01-27T00:40:14.269Z,96387.00
2019-01-27T00:42:42.628Z,96385.55
2019-01-27T00:45:09.375Z,96387.97
2019-01-27T00:47:36.246Z,96395.25
2019-01-27T00:50:02.914Z,96391.04
2019-01-27T00:52:29.548Z,96391.20
2019-01-27T00:54:56.440Z,96386.81
2019-01-27T00:57:23.083Z,96388.62
2019-01-27T00:59:49.717Z,96393.30
2019-01-27T01:02:16.637Z,96394.59
2019-01-27T01:04:43.710Z,96396.70
2019-01-27T01:07:11.274Z,96408.52
2019-01-27T01:09:39.100Z,96405.77
2019-01-27T01:12:08.352Z,96396.20
2019-01-27T01:14:36.365Z,96404.49
2019-01-27T01:17:09.611Z,96405.13
2019-01-27T01:19:38.269Z,96398.83
2019-01-27T01:22:05.914Z,96395.89
2019-01-27T01:24:33.732Z,96394.91
2019-01-27T01:27:01.240Z,96387.45
2019-01-27T01:29:30.123Z,96381.26
2019-01-27T01:32:01.644Z,96388.15
2019-01-27T01:34:33.241Z,96386.53
2019-01-27T01:37:02.042Z,96388.98
2019-01-27T01:39:31.816Z,96385.00
2019-01-27T01:41:59.738Z,96385.30
2019-01-27T01:44:27.625Z,96380.09
2019-01-27T01:46:58.724Z,96369.12
2019-01-27T01:49:31.721Z,96364.58
2019-01-27T01:51:59.633Z,96358.22
2019-01-27T01:54:29.356Z,96347.20
2019-01-27T01:56:57.626Z,96341.84
2019-01-27T01:59:28.502Z,96340.18
2019-01-27T02:01:56.508Z,96330.52
2019-01-27T02:04:25.300Z,96328.55
2019-01-27T02:06:54.932Z,96330.97
2019-01-27T02:09:26.048Z,96328.14
2019-01-27T02:11:59.272Z,96327.05
2019-01-27T02:14:30.362Z,96327.40
2019-01-27T02:16:58.327Z,96323.31
2019-01-27T02:19:26.254Z,96307.80
2019-01-27T02:21:55.924Z,96305.81
2019-01-27T02:24:26.059Z,96305.00
2019-01-27T02:26:53.034Z,96291.88
2019-01-27T02:29:20.062Z,96286.04
2019-01-27T02:31:48.419Z,96287.30
2019-01-27T02:34:19.183Z,96291.67
2019-01-27T02:36:45.883Z,96276.63
2019-01-27T02:39:13.320Z,96274.55
2019-01-27T02:41:40.041Z,96278.47
2019-01-27T02:44:06.879Z,96269.88
2019-01-27T02:46:33.587Z,96262.45
2019-01-27T02:49:00.337Z,96260.35
2019-01-27T02:51:27.038Z,96249.49
2019-01-27T02:53:53.963Z,96245.14
2019-01-27T02:56:20.752Z,96240.28
2019-01-27T02:58:47.893Z,96232.98
2019-01-27T03:01:15.974Z,96237.33
2019-01-27T03:03:42.759Z,96230.56
2019-01-27T03:06:10.590Z,96220.78
2019-01-27T03:08:38.123Z,96213.56
2019-01-27T03:11:05.130Z,96206.60
2019-01-27T03:13:33.768Z,96204.78
2019-01-27T03:16:01.474Z,96204.16
2019-01-27T03:18:28.433Z,96193.62
2019-01-27T03:20:55.921Z,96181.22
2019-01-27T03:23:23.592Z,96179.83
2019-01-27T03:25:51.191Z,96173.85
2019-01-27T03:28:19.901Z,96173.85
2019-01-27T03:30:47.990Z,96170.47
2019-01-27T03:33:15.832Z,96166.11
2019-01-27T03:35:43.300Z,96167.07
2019-01-27T03:38:10.260Z,96166.58
2019-01-27T03:40:37.273Z,96173.72
2019-01-27T03:43:04.000Z,96163.34
2019-01-27T03:45:31.004Z,96160.43
2019-01-27T03:47:58.271Z,96157.19
2019-01-27T03:50:25.790Z,96153.64
2019-01-27T03:52:54.174Z,96146.03
2019-01-27T03:55:22.275Z,96142.63
2019-01-27T03:57:49.908Z,96140.37
2019-01-27T04:00:17.561Z,96140.53
2019-01-27T04:02:45.620Z,96137.94
2019-01-27T04:05:13.107Z,96139.06
2019-01-27T04:07:40.022Z,96134.19
2019-01-27T04:10:07.075Z,96130.80
2019-01-27T04:12:33.809Z,96128.04
2019-01-27T04:15:00.627Z,96122.00
2019-01-27T04:17:27.647Z,96120.24
2019-01-27T04:19:54.563Z,96116.55
2019-01-27T04:22:22.311Z,96113.31
2019-01-27T04:24:49.105Z,96111.20
2019-01-27T04:27:15.951Z,96111.06
2019-01-27T04:29:42.586Z,96111.05
2019-01-27T04:32:09.494Z,96118.49
2019-01-27T04:34:36.548Z,96115.72
2019-01-27T04:37:03.833Z,96119.48
2019-01-27T04:42:17.584Z,96120.45
2019-01-27T04:44:49.781Z,96114.61
2019-01-27T04:47:19.279Z,96113.82
2019-01-27T04:49:46.313Z,96112.34
2019-01-27T04:52:15.710Z,96108.95
2019-01-27T04:54:42.407Z,96093.25
2019-01-27T04:57:09.786Z,96083.88
2019-01-27T04:59:39.514Z,96082.75
2019-01-27T05:02:06.311Z,96079.02
2019-01-27T05:04:33.080Z,96070.59
2019-01-27T05:06:59.902Z,96052.15
2019-01-27T05:09:26.970Z,96050.02
2019-01-27T05:11:53.925Z,96051.45
2019-01-27T05:14:20.565Z,96048.89
2019-01-27T05:16:47.252Z,96041.58
2019-01-27T05:19:14.080Z,96036.58
2019-01-27T05:21:41.001Z,96038.52
2019-01-27T05:24:07.593Z,96033.47
2019-01-27T05:26:34.209Z,96029.38
2019-01-27T05:29:01.104Z,96012.58
2019-01-27T05:31:27.727Z,96007.58
2019-01-27T05:33:54.398Z,96001.88
2019-01-27T05:36:21.336Z,96016.72
2019-01-27T05:38:48.156Z,96017.25
2019-01-27T05:41:16.622Z,96017.61
2019-01-27T05:43:43.446Z,96018.84
2019-01-27T05:46:10.373Z,96019.55
2019-01-27T05:48:37.282Z,96020.22
2019-01-27T05:51:03.929Z,96018.78
2019-01-27T05:53:30.547Z,96013.78
2019-01-27T05:55:57.576Z,96006.20
2019-01-27T05:58:24.619Z,96007.48
2019-01-27T06:00:51.588Z,96012.65
2019-01-27T06:03:18.513Z,96023.66
2019-01-27T06:05:46.966Z,96016.06
2019-01-27T06:08:13.646Z,96018.80
2019-01-27T06:10:40.628Z,96016.06
2019-01-27T06:13:07.541Z,96015.27
2019-01-27T06:15:34.153Z,96020.14
2019-01-27T06:18:00.750Z,96009.94
2019-01-27T06:20:27.636Z,96016.08
2019-01-27T06:22:54.238Z,96008.63
2019-01-27T06:25:20.885Z,96008.79
2019-01-27T06:27:47.776Z,96007.66
2019-01-27T06:30:14.399Z,96007.36
2019-01-27T06:32:41.047Z,96007.19
2019-01-27T06:35:07.952Z,95999.27
2019-01-27T06:37:38.438Z,95996.19
2019-01-27T06:40:09.186Z,95992.78
2019-01-27T06:42:36.271Z,95996.50
2019-01-27T06:45:04.441Z,95999.07
2019-01-27T06:47:31.359Z,95998.43
2019-01-27T06:49:58.841Z,95998.27
2019-01-27T06:52:27.382Z,95993.11
2019-01-27T06:54:54.175Z,95989.38
2019-01-27T06:57:21.134Z,95991.14
2019-01-27T06:59:47.785Z,95991.14
2019-01-27T07:02:14.436Z,95981.74
2019-01-27T07:04:41.208Z,95981.91
2019-01-27T07:07:07.824Z,95971.22
2019-01-27T07:09:34.447Z,95971.68
2019-01-27T07:12:01.870Z,95963.08
2019-01-27T07:14:28.600Z,95950.50
2019-01-27T07:16:55.414Z,95949.34
2019-01-27T07:19:22.265Z,95945.56
2019-01-27T07:21:48.951Z,95940.86
2019-01-27T07:24:15.656Z,95937.41
2019-01-27T07:26:42.826Z,95930.37
2019-01-27T07:29:09.637Z,95928.16
2019-01-27T07:31:37.873Z,95921.25
2019-01-27T07:34:04.642Z,95922.66
2019-01-27T07:36:31.295Z,95920.55
2019-01-27T07:38:57.931Z,95911.67
2019-01-27T07:41:24.814Z,95910.68
2019-01-27T07:43:51.820Z,95899.46
2019-01-27T07:46:18.743Z,95902.05
2019-01-27T07:48:46.620Z,95897.06
2019-01-27T07:51:14.489Z,95891.65
2019-01-27T07:53:44.067Z,95892.50
2019-01-27T07:56:14.495Z,95890.91
2019-01-27T07:58:43.634Z,95890.50
2019-01-27T08:01:11.280Z,95888.32
2019-01-27T08:03:38.662Z,95884.28
2019-01-27T08:06:05.236Z,95879.62
2019-01-27T08:08:32.240Z,95874.70
2019-01-27T08:10:59.159Z,95880.20
2019-01-27T08:13:26.114Z,95879.75
2019-01-27T08:15:52.748Z,95874.02
2019-01-27T08:18:19.415Z,95868.66
2019-01-27T08:20:46.253Z,95859.19
2019-01-27T08:23:13.796Z,95861.24
2019-01-27T08:25:40.480Z,95861.17
2019-01-27T08:28:08.739Z,95858.39
2019-01-27T08:30:35.420Z,95850.05
2019-01-27T08:33:08.119Z,95862.13
2019-01-27T08:35:34.698Z,95856.97
2019-01-27T08:38:01.457Z,95850.73
2019-01-27T08:40:28.403Z,95851.52
2019-01-27T08:42:55.087Z,95851.65
2019-01-27T08:45:22.077Z,95835.23
2019-01-27T08:47:48.710Z,95840.57
2019-01-27T08:50:15.574Z,95838.59
2019-01-27T08:52:42.207Z,95831.59
2019-01-27T08:55:09.077Z,95829.70
2019-01-27T08:57:35.705Z,95822.05
2019-01-27T09:00:02.628Z,95815.97
2019-01-27T09:02:29.607Z,95809.00
2019-01-27T09:04:56.330Z,95807.49
2019-01-27T09:07:22.988Z,95805.39
2019-01-27T09:09:49.714Z,95796.81
2019-01-27T09:12:16.301Z,95796.59
2019-01-27T09:14:42.942Z,95799.83
2019-01-27T09:17:09.835Z,95802.44
2019-01-27T09:19:36.611Z,95793.53
2019-01-27T09:22:03.250Z,95791.00
2019-01-27T09:24:30.253Z,95794.06
2019-01-27T09:26:56.909Z,95786.95
2019-01-27T09:29:23.541Z,95786.84
2019-01-27T09:31:50.212Z,95788.63
2019-01-27T09:34:16.843Z,95782.38
2019-01-27T09:36:43.823Z,95781.72
2019-01-27T09:39:10.737Z,95789.79
2019-01-27T09:41:37.406Z,95778.75
2019-01-27T09:44:04.024Z,95779.50
2019-01-27T09:46:31.197Z,95773.82
2019-01-27T09:48:58.008Z,95774.99
2019-01-27T09:51:24.943Z,95774.61
2019-01-27T09:53:51.652Z,95769.23
2019-01-27T09:56:18.393Z,95761.25
2019-01-27T09:58:45.059Z,95749.52
2019-01-27T10:01:13.539Z,95743.78
2019-01-27T10:03:40.156Z,95744.22
2019-01-27T10:06:07.096Z,95738.33
2019-01-27T10:08:33.724Z,95727.05
2019-01-27T10:11:00.480Z,95724.65
2019-01-27T10:13:27.408Z,95722.75
2019-01-27T10:15:54.343Z,95720.34
2019-01-27T10:18:20.991Z,95709.31
2019-01-27T10:20:47.587Z,95702.27
2019-01-27T10:23:14.509Z,95694.67
2019-01-27T10:25:41.468Z,95690.48
2019-01-27T10:28:08.128Z,95688.07
2019-01-27T10:30:34.887Z,95681.87
2019-01-27T10:33:01.707Z,95681.61
2019-01-27T10:35:28.644Z,95677.80
2019-01-27T10:37:56.209Z,95668.36
2019-01-27T10:40:25.306Z,95671.09
2019-01-27T10:42:52.000Z,95666.39
2019-01-27T10:45:21.608Z,95666.76
2019-01-27T10:47:48.949Z,95664.52
2019-01-27T10:50:16.216Z,95657.52
2019-01-27T10:52:45.855Z,95648.67
2019-01-27T10:55:17.823Z,95643.89
2019-01-27T10:57:48.354Z,95642.33
2019-01-27T11:00:16.156Z,95635.59
2019-01-27T11:02:46.743Z,95633.27
2019-01-27T11:05:14.442Z,95618.23
2019-01-27T11:07:46.264Z,95615.09
2019-01-27T11:10:14.174Z,95617.23
2019-01-27T11:12:43.788Z,95615.17
2019-01-27T11:15:10.778Z,95614.17
2019-01-27T11:17:40.742Z,95605.21
2019-01-27T11:20:11.443Z,95612.39
2019-01-27T11:22:42.642Z,95600.64
2019-01-27T11:25:19.252Z,95594.45
2019-01-27T11:27:42.992Z,95593.89
2019-01-27T11:30:13.318Z,95592.47
2019-01-27T11:35:29.750Z,95588.86
2019-01-27T11:37:57.823Z,95582.08
2019-01-27T11:40:25.945Z,95581.69
2019-01-27T11:42:53.100Z,95576.17
2019-01-27T11:45:24.217Z,95575.61
2019-01-27T11:47:51.933Z,95578.07
2019-01-27T11:50:24.420Z,95586.41
2019-01-27T11:52:54.924Z,95581.13
2019-01-27T11:55:24.357Z,95586.48
2019-01-27T11:58:05.919Z,95593.50
2019-01-27T12:00:31.109Z,95594.59
2019-01-27T12:02:58.938Z,95591.69
2019-01-27T12:05:26.260Z,95599.29
2019-01-27T12:07:54.359Z,95597.07
2019-01-27T12:10:22.120Z,95590.50
2019-01-27T12:12:51.502Z,95582.59
2019-01-27T12:15:19.305Z,95578.86
2019-01-27T12:17:51.983Z,95583.03
2019-01-27T12:20:19.733Z,95587.83
2019-01-27T12:22:47.309Z,95582.77
2019-01-27T12:25:15.402Z,95576.42
2019-01-27T12:27:43.305Z,95582.29
2019-01-27T12:30:16.303Z,95572.30
2019-01-27T12:32:45.702Z,95574.09
2019-01-27T12:35:21.228Z,95570.56
2019-01-27T12:37:48.117Z,95572.09
2019-01-27T12:40:14.698Z,95558.71
2019-01-27T12:42:43.567Z,95564.91
2019-01-27T12:45:12.341Z,95563.88
2019-01-27T12:47:40.985Z,95540.91
2019-01-27T12:50:08.171Z,95560.02
2019-01-27T12:52:34.983Z,95545.98
2019-01-27T12:55:03.378Z,95554.14
2019-01-27T12:57:31.857Z,95550.58
2019-01-27T13:00:01.403Z,95550.42
2019-01-27T13:02:28.020Z,95549.48
2019-01-27T13:04:57.043Z,95565.77
2019-01-27T13:07:23.804Z,95552.20
2019-01-27T13:09:53.902Z,95536.77
2019-01-27T13:12:22.603Z,95527.81
2019-01-27T13:14:49.274Z,95536.88
2019-01-27T13:17:17.295Z,95557.13
2019-01-27T13:19:44.354Z,95541.40
2019-01-27T13:22:12.376Z,95530.05
2019-01-27T13:24:41.658Z,95531.70
2019-01-27T13:27:08.276Z,95528.35
2019-01-27T13:29:38.894Z,95531.32
2019-01-27T13:32:06.514Z,95525.94
2019-01-27T13:34:34.221Z,95535.25
2019-01-27T13:37:03.075Z,95535.46
2019-01-27T13:39:30.700Z,95536.63
2019-01-27T13:41:57.630Z,95527.63
2019-01-27T13:44:24.771Z,95536.84
2019-01-27T13:46:52.769Z,95526.08
2019-01-27T13:49:26.249Z,95517.83
2019-01-27T13:51:53.119Z,95514.56
2019-01-27T13:54:19.824Z,95515.70
2019-01-27T13:56:46.636Z,95525.56
2019-01-27T13:59:13.618Z,95522.34
2019-01-27T14:01:40.909Z,95526.83
2019-01-27T14:04:07.639Z,95521.82
2019-01-27T14:06:34.622Z,95518.41
2019-01-27T14:09:01.316Z,95520.96
2019-01-27T14:11:27.935Z,95524.94
2019-01-27T14:13:54.850Z,95519.69
2019-01-27T14:16:21.898Z,95521.28
2019-01-27T14:18:49.142Z,95516.31
2019-01-27T14:21:16.556Z,95517.90
2019-01-27T14:23:44.092Z,95520.79
2019-01-27T14:26:10.989Z,95522.94
2019-01-27T14:28:37.622Z,95518.63
2019-01-27T14:31:04.367Z,95507.99
2019-01-27T14:33:31.221Z,95519.23
2019-01-27T14:35:58.150Z,95514.23
2019-01-27T14:38:25.178Z,95499.55
2019-01-27T14:40:52.133Z,95513.05
2019-01-27T14:43:18.776Z,95510.26
2019-01-27T14:45:45.392Z,95517.25
2019-01-27T14:48:12.435Z,95527.95
2019-01-27T14:50:39.422Z,95516.69
2019-01-27T14:53:07.751Z,95511.52
2019-01-27T14:55:34.383Z,95519.88
2019-01-27T14:58:01.356Z,95503.59
2019-01-27T15:00:28.312Z,95519.45
2019-01-27T15:02:55.008Z,95516.55
2019-01-27T15:05:21.773Z,95511.16
2019-01-27T15:07:48.720Z,95507.83
2019-01-27T15:10:15.565Z,95506.49
2019-01-27T15:12:42.494Z,95508.39
2019-01-27T15:15:09.452Z,95504.27
2019-01-27T15:17:37.325Z,95512.24
2019-01-27T15:20:04.046Z,95510.73
2019-01-27T15:22:30.639Z,95508.31
2019-01-27T15:24:57.723Z,95510.28
2019-01-27T15:27:24.677Z,95507.36
2019-01-27T15:29:51.347Z,95509.27
2019-01-27T15:32:18.436Z,95517.83
2019-01-27T15:34:45.054Z,95515.20
2019-01-27T15:37:12.068Z,95508.41
2019-01-27T15:39:38.849Z,95500.52
2019-01-27T15:42:05.992Z,95497.55
2019-01-27T15:44:32.868Z,95499.73
2019-01-27T15:47:00.104Z,95496.61
2019-01-27T15:49:26.847Z,95495.19
2019-01-27T15:51:53.558Z,95494.17
2019-01-27T15:54:20.226Z,95496.72
2019-01-27T15:56:47.193Z,95502.88
2019-01-27T15:59:14.344Z,95501.66
2019-01-27T16:01:41.317Z,95504.13
2019-01-27T16:04:08.498Z,95510.89
2019-01-27T16:06:35.587Z,95511.24
2019-01-27T16:09:02.265Z,95508.93
2019-01-27T16:11:29.187Z,95516.48
2019-01-27T16:13:55.859Z,95514.16
2019-01-27T16:16:22.785Z,95526.03
2019-01-27T16:18:49.762Z,95521.70
2019-01-27T16:21:16.848Z,95525.02
2019-01-27T16:23:43.553Z,95522.42
2019-01-27T16:26:10.502Z,95526.44
2019-01-27T16:28:38.906Z,95513.35
2019-01-27T16:31:05.651Z,95519.63
2019-01-27T16:33:32.634Z,95526.95
2019-01-27T16:35:59.582Z,95527.14
2019-01-27T16:38:26.334Z,95521.22
2019-01-27T16:40:52.972Z,95526.02
2019-01-27T16:43:20.263Z,95521.56
2019-01-27T16:45:46.974Z,95514.38
2019-01-27T16:48:14.041Z,95509.09
2019-01-27T16:50:41.002Z,95526.25
2019-01-27T16:53:09.320Z,95521.50
2019-01-27T16:55:36.064Z,95528.79
2019-01-27T16:58:02.986Z,95522.01
2019-01-27T17:00:29.654Z,95527.95
2019-01-27T17:02:56.909Z,95535.67
2019-01-27T17:05:23.672Z,95535.15
2019-01-27T17:07:50.416Z,95515.48
2019-01-27T17:10:17.149Z,95521.19
2019-01-27T17:12:44.623Z,95512.94
2019-01-27T17:15:11.634Z,95514.76
2019-01-27T17:17:39.606Z,95520.61
2019-01-27T17:20:06.276Z,95514.59
2019-01-27T17:22:33.293Z,95509.42
2019-01-27T17:25:00.534Z,95515.34
2019-01-27T17:27:27.341Z,95521.34
2019-01-27T17:29:54.385Z,95518.86
2019-01-27T17:32:21.446Z,95516.56
2019-01-27T17:34:49.005Z,95517.88
2019-01-27T17:37:15.596Z,95514.94
2019-01-27T17:39:42.537Z,95515.05
2019-01-27T17:42:09.805Z,95503.00
2019-01-27T17:44:36.463Z,95500.39
2019-01-27T17:47:03.103Z,95517.91
2019-01-27T17:49:29.747Z,95513.63
2019-01-27T17:51:56.913Z,95527.36
2019-01-27T17:54:24.557Z,95524.98
2019-01-27T17:56:51.263Z,95523.29
2019-01-27T17:59:18.408Z,95519.00
2019-01-27T18:01:45.009Z,95529.61
2019-01-27T18:04:11.954Z,95516.88
2019-01-27T18:06:38.957Z,95521.51
2019-01-27T18:09:05.764Z,95529.81
2019-01-27T18:11:33.370Z,95521.30
2019-01-27T18:14:00.344Z,95515.90
2019-01-27T18:16:27.169Z,95511.58
2019-01-27T18:18:54.096Z,95498.14
2019-01-27T18:21:21.006Z,95497.75
2019-01-27T18:23:47.683Z,95501.66
2019-01-27T18:26:14.431Z,95497.45
2019-01-27T18:28:41.891Z,95489.94
2019-01-27T18:31:08.663Z,95493.23
2019-01-27T18:33:35.433Z,95478.71
2019-01-27T18:36:04.068Z,95477.41
2019-01-27T18:38:30.782Z,95482.10
2019-01-27T18:40:57.555Z,95479.60
2019-01-27T18:43:24.191Z,95486.02
2019-01-27T18:45:50.898Z,95480.13
2019-01-27T18:48:18.084Z,95484.21
2019-01-27T18:50:44.715Z,95478.61
2019-01-27T18:53:13.220Z,95476.92
2019-01-27T18:55:40.249Z,95472.69
2019-01-27T18:58:07.069Z,95476.48
2019-01-27T19:00:34.144Z,95480.72
2019-01-27T19:03:00.843Z,95480.09
2019-01-27T19:05:27.878Z,95479.80
2019-01-27T19:07:54.892Z,95469.85
2019-01-27T19:10:21.848Z,95470.05
2019-01-27T19:12:48.487Z,95469.77
2019-01-27T19:15:15.077Z,95475.46
2019-01-27T19:17:41.926Z,95476.86
2019-01-27T19:20:08.720Z,95478.26
2019-01-27T19:22:35.631Z,95471.47
2019-01-27T19:25:02.215Z,95469.17
2019-01-27T19:27:29.109Z,95470.91
2019-01-27T19:29:55.962Z,95463.69
2019-01-27T19:32:22.637Z,95458.27
2019-01-27T19:34:49.257Z,95450.36
2019-01-27T19:37:16.155Z,95454.97
2019-01-27T19:39:42.917Z,95457.06
2019-01-27T19:42:09.613Z,95446.03
2019-01-27T19:44:36.835Z,95455.17
2019-01-27T19:47:04.989Z,95457.76
2019-01-27T19:49:31.717Z,95461.88
2019-01-27T19:51:58.386Z,95461.38
2019-01-27T19:54:25.337Z,95470.90
2019-01-27T19:56:52.012Z,95470.49
2019-01-27T19:59:18.754Z,95463.98
2019-01-27T20:01:45.722Z,95461.39
2019-01-27T20:04:12.509Z,95460.97
2019-01-27T20:06:39.465Z,95466.47
2019-01-27T20:09:06.275Z,95461.98
2019-01-27T20:11:34.179Z,95458.66
2019-01-27T20:14:00.803Z,95461.19
2019-01-27T20:16:27.832Z,95476.32
2019-01-27T20:18:54.682Z,95466.48
2019-01-27T20:21:21.557Z,95472.49
2019-01-27T20:23:48.188Z,95467.29
2019-01-27T20:26:15.173Z,95467.19
2019-01-27T20:28:42.155Z,95466.66
2019-01-27T20:31:08.851Z,95461.94
2019-01-27T20:33:35.956Z,95456.20
2019-01-27T20:36:02.883Z,95454.27
2019-01-27T20:38:34.142Z,95451.76
2019-01-27T20:41:02.942Z,95440.14
2019-01-27T20:43:29.920Z,95436.73
2019-01-27T20:46:05.183Z,95432.45
2019-01-27T20:51:19.372Z,95418.65
2019-01-27T20:53:49.135Z,95418.42
2019-01-27T20:56:18.219Z,95408.62
2019-01-27T20:58:46.187Z,95399.13
2019-01-27T21:01:13.235Z,95405.14
2019-01-27T21:03:41.644Z,95406.30
2019-01-27T21:06:10.833Z,95390.41
2019-01-27T21:08:44.922Z,95406.37
2019-01-27T21:11:13.185Z,95402.05
2019-01-27T21:13:45.007Z,95401.33
2019-01-27T21:16:13.906Z,95403.60
2019-01-27T21:18:44.458Z,95395.70
2019-01-27T21:21:15.757Z,95381.42
2019-01-27T21:23:45.405Z,95379.36
2019-01-27T21:26:26.951Z,95367.72
2019-01-27T21:28:58.050Z,95353.09
2019-01-27T21:31:27.015Z,95376.90
2019-01-27T21:33:56.035Z,95372.64
2019-01-27T21:36:31.555Z,95378.06
2019-01-27T21:38:56.794Z,95372.00
2019-01-27T21:41:25.513Z,95370.25
2019-01-27T21:43:53.820Z,95365.77
2019-01-27T21:46:23.446Z,95365.51
2019-01-27T21:48:50.253Z,95362.62
2019-01-27T21:51:20.889Z,95362.44
2019-01-27T21:53:48.496Z,95362.94
2019-01-27T21:56:19.875Z,95353.42
2019-01-27T21:58:47.072Z,95342.91
2019-01-27T22:01:17.927Z,95347.16
2019-01-27T22:03:45.007Z,95349.20
2019-01-27T22:06:16.279Z,95344.24
2019-01-27T22:08:46.277Z,95337.32
2019-01-27T22:11:14.280Z,95342.02
2019-01-27T22:13:46.061Z,95350.92
2019-01-27T22:16:15.157Z,95339.20
2019-01-27T22:18:42.618Z,95345.42
2019-01-27T22:21:09.241Z,95340.14
2019-01-27T22:23:36.907Z,95329.75
2019-01-27T22:26:08.113Z,95333.62
2019-01-27T22:31:21.932Z,95323.15
2019-01-27T22:33:53.592Z,95322.33
2019-01-27T22:36:24.695Z,95312.42
2019-01-27T22:38:54.309Z,95309.95
2019-01-27T22:41:21.193Z,95303.02
2019-01-27T22:43:49.329Z,95296.97
2019-01-27T22:46:16.201Z,95303.73
2019-01-27T22:48:47.240Z,95301.26
2019-01-27T22:51:15.123Z,95296.88
2019-01-27T22:53:44.943Z,95300.98
2019-01-27T22:56:16.705Z,95305.16
2019-01-27T22:58:46.556Z,95297.28
2019-01-27T23:01:14.208Z,95294.77
2019-01-27T23:03:43.586Z,95298.68
2019-01-27T23:06:11.460Z,95288.34
2019-01-27T23:08:40.185Z,95286.32
2019-01-27T23:11:11.055Z,95284.16
2019-01-27T23:13:38.018Z,95283.87
2019-01-27T23:16:06.867Z,95280.09
2019-01-27T23:18:37.640Z,95278.72
2019-01-27T23:21:08.576Z,95269.13
2019-01-27T23:23:37.411Z,95269.92
2019-01-27T23:26:06.275Z,95265.31
2019-01-27T23:28:32.985Z,95264.48
2019-01-27T23:31:03.061Z,95262.20
2019-01-27T23:33:32.793Z,95248.14
2019-01-27T23:36:03.371Z,95259.57
2019-01-27T23:38:33.222Z,95240.67
2019-01-27T23:41:04.702Z,95234.67
2019-01-27T23:43:32.301Z,95232.27
2019-01-27T23:46:02.502Z,95232.92
2019-01-27T23:48:33.564Z,95229.80
2019-01-27T23:51:00.752Z,95236.58
2019-01-27T23:53:34.224Z,95235.95
2019-01-27T23:56:02.879Z,95231.52
2019-01-27T23:58:35.081Z,95218.62
